Accueil
METAR-TAF:

METAR-TAF

Aéroports :

Umiujaq, Québec, Canada

latitude: 56-32N, longitude: 076-31W, altitude: 71 m

Observation

Le bulletin a été fait il y a 1 heure et 18 minutes, à 12:00 UTC
Vent 3 kt de ouest/nord-ouest, variant entre ouest/sud-ouest et nord-ouest
Température -2°C
Humidité 80%
Pression 1020 hPa
Visibilité: 24.1 km
Quelques nuages à une hauteur de 1200 ft
Nuages fragmentés à une hauteur de 4000 ft
neige faible

METAR: CYMU 011200Z 30003KT 250V320 15SM -SN FEW012 BKN040 M02/M05 A3011 RMK ST1SC6 SLP205

Heure: 09:18 (13:18 UTC)


TAF: absent

Observations et prévisions météorologiques de plus de 4000 aéroports (messages METAR et TAF).

Les stations disponibles sont représentées par des disques jaunes et rouges sur la carte.

Passer la souris dessus pour voir le nom de la station.

Cliquer dessus pour voir les observations et prévisions météorologiques.

Pour changer de carte: cliquez sur les boutons verts avec une croix noire pour zoomer, sur le bouton vert avec un tiret pour effectuer un zoom arrière, ou sur les flèches vertes pour les cartes adjacentes.


METAR-TAF: